Time;durP1;ratioP1;P1;durP2;ratioP2;P2;SDS_P1;SDS_P2;PMS_P1;PMS_P2;Temp;Humidity;BMP_temperature;BMP_pressure;BME280_temperature;BME280_humidity;BME280_pressure;Samples;Min_cycle;Max_cycle;Signal;HPM_P1;HPM_P2
2023/12/22 00:01:00;;;;;;;2.73;1.23;;;;;;;20.39;47.40;95921.50;4969095;28;20658;-26
2023/12/22 00:03:27;;;;;;;2.37;1.30;;;;;;;20.40;47.57;95924.06;4962376;28;20223;-26
2023/12/22 00:05:53;;;;;;;4.73;1.40;;;;;;;20.39;47.68;95914.72;4966976;28;20700;-28
2023/12/22 00:08:20;;;;;;;4.30;1.23;;;;;;;20.40;47.79;95923.25;4988929;28;20282;-27
2023/12/22 00:10:47;;;;;;;1.40;1.20;;;;;;;20.40;47.55;95896.00;4976046;28;20219;-26
2023/12/22 00:13:13;;;;;;;1.43;1.10;;;;;;;20.39;47.54;95914.72;4989182;28;20318;-27
2023/12/22 00:15:40;;;;;;;1.30;1.20;;;;;;;20.39;48.01;95926.63;4987889;28;20206;-27
2023/12/22 00:18:06;;;;;;;2.07;1.20;;;;;;;20.40;47.56;95918.16;4980441;28;20210;-26
2023/12/22 00:20:33;;;;;;;1.47;1.27;;;;;;;20.40;47.47;95933.44;4975855;28;20206;-26
2023/12/22 00:23:00;;;;;;;1.23;1.20;;;;;;;20.40;47.65;95913.03;4974351;28;20219;-31
2023/12/22 00:25:26;;;;;;;3.57;1.63;;;;;;;20.39;47.51;95921.50;4973325;28;20203;-28
2023/12/22 00:27:53;;;;;;;1.20;1.03;;;;;;;20.39;47.64;95935.13;4974107;28;20200;-26
2023/12/22 00:30:19;;;;;;;2.10;1.20;;;;;;;20.39;47.74;95939.38;4990142;28;20931;-26
2023/12/22 00:32:46;;;;;;;2.37;1.40;;;;;;;20.38;47.30;95943.66;4974502;28;20276;-27
2023/12/22 00:35:13;;;;;;;3.03;1.30;;;;;;;20.39;47.69;95958.09;4973570;28;20219;-27
2023/12/22 00:37:40;;;;;;;2.67;1.33;;;;;;;20.39;47.68;95935.13;4970966;28;20273;-26
2023/12/22 00:40:08;;;;;;;1.20;1.10;;;;;;;20.38;47.67;95928.34;4972455;28;20199;-31
2023/12/22 00:42:34;;;;;;;1.30;1.20;;;;;;;20.39;47.64;95950.44;4981678;28;20226;-26
2023/12/22 00:45:01;;;;;;;1.87;1.30;;;;;;;20.40;47.58;95941.09;4974229;28;20192;-27
2023/12/22 00:47:28;;;;;;;1.43;1.30;;;;;;;20.40;47.47;95948.75;4973374;28;20208;-27
2023/12/22 00:49:55;;;;;;;2.93;1.40;;;;;;;20.39;47.60;95945.34;4972561;28;20238;-27
2023/12/22 00:52:22;;;;;;;1.13;1.03;;;;;;;20.40;47.52;95933.44;4974300;28;20200;-27
2023/12/22 00:54:48;;;;;;;1.60;1.30;;;;;;;20.37;47.81;95935.97;4977096;28;20681;-26
2023/12/22 00:57:15;;;;;;;1.40;1.30;;;;;;;20.40;47.57;95941.94;4980659;28;20359;-26
2023/12/22 00:59:47;;;;;;;1.60;1.30;;;;;;;20.39;47.68;95947.03;4964959;28;20294;-29
2023/12/22 01:02:15;;;;;;;1.90;1.20;;;;;;;20.38;47.47;95946.19;4969307;28;20196;-27
2023/12/22 01:04:41;;;;;;;2.17;1.10;;;;;;;20.39;47.73;95960.66;4971313;28;20195;-26
2023/12/22 01:07:08;;;;;;;1.20;1.10;;;;;;;20.40;47.74;95957.25;4970696;28;20632;-26
2023/12/22 01:09:37;;;;;;;1.43;1.10;;;;;;;20.40;47.65;95958.97;4983262;28;20199;-28
2023/12/22 01:12:04;;;;;;;2.40;1.30;;;;;;;20.41;47.59;95960.66;4976767;28;20208;-26
2023/12/22 01:14:31;;;;;;;1.20;1.10;;;;;;;20.39;47.51;95965.75;4976191;28;20592;-27
2023/12/22 01:16:59;;;;;;;1.23;1.07;;;;;;;20.39;48.08;95963.19;4976732;28;20568;-26
2023/12/22 01:19:26;;;;;;;1.20;1.10;;;;;;;20.39;47.65;95955.53;4984378;28;20282;-26
2023/12/22 01:21:52;;;;;;;1.73;1.37;;;;;;;20.40;47.28;95957.25;4981402;28;20287;-28
2023/12/22 01:24:19;;;;;;;1.97;1.27;;;;;;;20.39;47.64;95954.69;4973085;28;20231;-27
2023/12/22 01:26:45;;;;;;;1.23;1.10;;;;;;;20.39;47.68;95940.25;4979205;28;20752;-26
2023/12/22 01:29:12;;;;;;;1.27;1.17;;;;;;;20.40;47.46;95951.31;4987285;28;20230;-26
2023/12/22 01:31:38;;;;;;;2.20;1.20;;;;;;;20.40;47.68;95948.75;4978300;28;20226;-32
2023/12/22 01:34:05;;;;;;;4.43;1.30;;;;;;;20.38;47.65;95940.22;4984653;28;20597;-28
2023/12/22 01:36:33;;;;;;;1.20;1.10;;;;;;;20.30;47.76;95946.94;4986732;28;20550;-27
2023/12/22 01:39:00;;;;;;;1.33;1.20;;;;;;;20.39;47.55;95949.56;4978060;28;20196;-26
2023/12/22 01:41:26;;;;;;;1.53;1.20;;;;;;;20.39;47.64;95952.13;4981081;28;20204;-27
2023/12/22 01:43:53;;;;;;;2.03;1.30;;;;;;;20.41;47.49;95950.47;4979499;28;20216;-31
2023/12/22 01:46:20;;;;;;;1.37;1.27;;;;;;;20.37;47.54;95946.19;4976301;28;20203;-27
2023/12/22 01:48:46;;;;;;;1.20;1.10;;;;;;;20.40;47.55;95954.69;4966697;28;20209;-27
2023/12/22 01:51:13;;;;;;;5.70;1.20;;;;;;;20.39;47.58;95970.84;4982945;28;20394;-26
2023/12/22 01:53:39;;;;;;;1.60;1.50;;;;;;;20.30;47.72;95959.69;4983065;28;20642;-27
2023/12/22 01:56:06;;;;;;;1.57;1.20;;;;;;;20.40;47.47;95969.16;4980924;28;20201;-27
2023/12/22 01:58:33;;;;;;;1.10;1.10;;;;;;;20.39;47.61;95964.88;4982212;28;20204;-26
2023/12/22 02:00:59;;;;;;;3.77;1.13;;;;;;;20.39;47.68;95968.31;4958891;28;20278;-26
2023/12/22 02:03:26;;;;;;;1.40;1.30;;;;;;;20.39;47.77;95970.84;4970803;28;20220;-26
2023/12/22 02:05:53;;;;;;;1.30;1.20;;;;;;;20.40;47.57;95970.00;4964452;28;20641;-26
2023/12/22 02:08:21;;;;;;;0.90;0.90;;;;;;;20.37;47.62;95967.41;4977828;28;20211;-27
2023/12/22 02:10:47;;;;;;;1.23;1.10;;;;;;;20.40;47.60;95967.44;4967904;28;20235;-26
2023/12/22 02:13:14;;;;;;;1.10;1.00;;;;;;;20.40;47.77;95957.25;4974575;28;20289;-31
2023/12/22 02:15:40;;;;;;;1.93;1.20;;;;;;;20.38;47.49;95966.59;4976382;28;20610;-28
2023/12/22 02:18:10;;;;;;;1.77;1.27;;;;;;;20.35;47.52;95953.81;4957082;28;20247;-26
2023/12/22 02:20:37;;;;;;;1.40;1.30;;;;;;;20.40;47.39;95970.00;4962336;28;20199;-27
2023/12/22 02:23:03;;;;;;;2.10;1.30;;;;;;;20.40;47.59;95959.78;4969980;28;20726;-27
2023/12/22 02:25:30;;;;;;;1.47;1.10;;;;;;;20.41;47.33;95958.13;4974182;28;20709;-26
2023/12/22 02:28:07;;;;;;;1.10;1.00;;;;;;;20.37;47.42;95959.78;4975678;28;20219;-26
2023/12/22 02:30:38;;;;;;;1.00;1.00;;;;;;;20.38;47.65;95971.72;4985337;28;20630;-27
2023/12/22 02:33:05;;;;;;;1.20;1.10;;;;;;;20.40;47.59;95976.81;4951614;28;20224;-30
2023/12/22 02:35:33;;;;;;;1.20;1.10;;;;;;;20.40;47.51;95984.47;4953709;28;20761;-26
2023/12/22 02:38:00;;;;;;;1.20;1.00;;;;;;;20.40;47.51;95949.59;4958394;28;20199;-26
2023/12/22 02:40:27;;;;;;;1.23;1.10;;;;;;;20.41;47.73;95930.91;4953646;28;20262;-29
2023/12/22 02:42:54;;;;;;;2.13;1.33;;;;;;;20.40;47.51;95949.59;4964630;28;20224;-26
2023/12/22 02:45:21;;;;;;;3.13;1.17;;;;;;;20.39;47.42;95960.66;4980805;28;20242;-26
2023/12/22 02:47:47;;;;;;;3.10;1.33;;;;;;;20.39;47.44;95960.66;4980754;28;20195;-37
2023/12/22 02:50:15;;;;;;;1.60;1.10;;;;;;;20.38;47.58;95951.28;4978890;28;20258;-28
2023/12/22 02:52:42;;;;;;;1.83;1.20;;;;;;;20.39;47.56;95939.38;4977965;28;20219;-30
2023/12/22 02:55:08;;;;;;;2.37;1.40;;;;;;;20.38;47.71;95933.44;4988573;28;20224;-26
2023/12/22 02:57:35;;;;;;;1.20;1.10;;;;;;;20.38;47.54;95935.13;4974967;28;20225;-29
2023/12/22 03:00:02;;;;;;;2.37;1.33;;;;;;;20.37;47.37;95954.66;4971273;28;20207;-28
2023/12/22 03:02:28;;;;;;;1.87;1.17;;;;;;;20.37;47.55;95953.84;4974900;28;20208;-27
2023/12/22 03:04:55;;;;;;;1.20;1.10;;;;;;;20.38;47.41;95961.50;4974450;28;20195;-26
2023/12/22 03:07:22;;;;;;;1.30;1.20;;;;;;;20.38;47.74;95958.09;4984886;28;20198;-26
2023/12/22 03:09:48;;;;;;;1.30;1.20;;;;;;;20.37;47.62;95946.19;4978365;28;20207;-28
2023/12/22 03:12:15;;;;;;;1.27;1.10;;;;;;;20.38;47.43;95930.03;4977569;28;20196;-28
2023/12/22 03:14:41;;;;;;;1.20;1.10;;;;;;;20.37;47.63;95935.97;4982534;28;20255;-26
2023/12/22 03:17:09;;;;;;;1.13;1.10;;;;;;;20.38;47.59;95935.13;4983606;28;20199;-26
2023/12/22 03:19:36;;;;;;;3.07;1.20;;;;;;;20.38;47.45;95945.31;4982357;28;20206;-26
2023/12/22 03:22:03;;;;;;;4.77;1.17;;;;;;;20.38;47.60;95952.97;4979621;28;20389;-26
2023/12/22 03:24:29;;;;;;;1.80;1.40;;;;;;;20.38;47.56;95945.31;4977412;28;20306;-27
2023/12/22 03:26:56;;;;;;;2.03;1.23;;;;;;;20.39;47.24;95965.75;4966575;28;20200;-26
2023/12/22 03:29:22;;;;;;;1.33;1.13;;;;;;;20.38;47.56;95960.63;4968418;28;20200;-26
2023/12/22 03:31:49;;;;;;;1.40;1.20;;;;;;;20.38;47.68;95955.53;4973291;28;20436;-26
2023/12/22 03:34:16;;;;;;;1.80;1.33;;;;;;;20.37;47.52;95957.22;4974169;28;20223;-26
2023/12/22 03:36:42;;;;;;;1.23;1.07;;;;;;;20.38;47.67;95964.06;4975324;28;20204;-26
2023/12/22 03:39:09;;;;;;;1.20;1.10;;;;;;;20.38;47.84;95952.97;4978111;28;20239;-26
2023/12/22 03:41:36;;;;;;;1.40;1.10;;;;;;;20.38;47.59;95958.09;4974136;28;20207;-28
2023/12/22 03:44:02;;;;;;;2.17;1.20;;;;;;;20.37;47.76;95964.03;4972881;28;20700;-26
2023/12/22 03:46:29;;;;;;;1.57;1.37;;;;;;;20.38;47.70;95971.72;4977003;28;20204;-26
2023/12/22 03:48:55;;;;;;;1.03;1.03;;;;;;;20.37;47.77;95969.97;4975752;28;20194;-26
2023/12/22 03:51:22;;;;;;;1.37;1.17;;;;;;;20.37;48.01;95954.66;4971180;28;20211;-28
2023/12/22 03:53:49;;;;;;;1.03;1.03;;;;;;;20.38;47.61;95948.75;4976702;28;20223;-26
2023/12/22 03:56:15;;;;;;;1.80;1.10;;;;;;;20.37;47.84;95959.78;4979134;28;20204;-26
2023/12/22 03:58:42;;;;;;;1.73;1.30;;;;;;;20.37;47.58;95949.56;4972659;28;20208;-26
2023/12/22 04:01:09;;;;;;;3.30;1.17;;;;;;;20.37;47.61;95939.34;4974617;28;20203;-27
2023/12/22 04:03:35;;;;;;;1.27;1.17;;;;;;;20.37;47.63;95931.72;4976155;28;20595;-26
2023/12/22 04:06:03;;;;;;;1.30;1.13;;;;;;;20.37;47.68;95930.88;4970383;28;20730;-27
2023/12/22 04:08:30;;;;;;;1.30;1.10;;;;;;;20.38;47.51;95935.13;4977744;28;20199;-28
2023/12/22 04:10:56;;;;;;;1.23;1.13;;;;;;;20.38;47.49;95930.03;4972212;28;20234;-26
2023/12/22 04:13:23;;;;;;;1.20;1.10;;;;;;;20.37;47.55;95936.81;4973670;28;20286;-27
2023/12/22 04:15:49;;;;;;;1.13;1.03;;;;;;;20.37;47.28;95944.47;4972821;28;20250;-26
2023/12/22 04:18:16;;;;;;;0.87;0.87;;;;;;;20.37;47.75;95941.06;4979545;28;20301;-26
2023/12/22 04:20:43;;;;;;;1.07;1.07;;;;;;;20.37;47.62;95949.56;4968000;28;20279;-29
2023/12/22 04:23:09;;;;;;;1.30;1.20;;;;;;;20.37;47.46;95961.50;4968496;28;20255;-27
2023/12/22 04:25:36;;;;;;;1.93;1.20;;;;;;;20.38;47.75;95964.06;4972403;28;20199;-40
2023/12/22 04:28:03;;;;;;;3.17;1.10;;;;;;;20.38;47.73;95973.41;4974298;28;20282;-26
2023/12/22 04:30:29;;;;;;;1.17;1.07;;;;;;;20.39;47.90;95981.06;4970703;28;20257;-33
2023/12/22 04:33:00;;;;;;;1.60;1.37;;;;;;;20.39;47.87;95968.31;4977771;28;20223;-34
2023/12/22 04:35:27;;;;;;;1.67;1.20;;;;;;;20.39;47.40;95986.16;4972413;28;20310;-29
2023/12/22 04:37:53;;;;;;;1.60;1.20;;;;;;;20.32;47.91;95981.84;4972559;28;20637;-26
2023/12/22 04:40:20;;;;;;;1.80;1.30;;;;;;;20.39;47.60;96009.13;4975951;28;20200;-27
2023/12/22 04:42:47;;;;;;;3.20;1.33;;;;;;;20.40;47.38;96013.38;4975503;28;20310;-27
2023/12/22 04:45:13;;;;;;;2.20;1.10;;;;;;;20.39;47.67;96009.13;4979321;28;20195;-26
2023/12/22 04:47:40;;;;;;;1.33;1.10;;;;;;;20.41;48.01;96011.69;4980893;28;20583;-29
2023/12/22 04:50:07;;;;;;;2.10;1.13;;;;;;;20.41;47.76;96009.13;4976611;28;20290;-28
2023/12/22 04:52:34;;;;;;;1.63;1.30;;;;;;;20.41;47.48;96002.34;4979645;28;20243;-26
2023/12/22 04:55:00;;;;;;;2.97;1.53;;;;;;;20.41;47.55;96009.13;4978263;28;20225;-29
2023/12/22 04:57:27;;;;;;;1.80;1.20;;;;;;;20.42;47.55;96009.16;4979028;28;20634;-27
2023/12/22 04:59:53;;;;;;;4.27;1.10;;;;;;;20.41;47.87;96007.47;4975363;28;20283;-26
2023/12/22 05:02:20;;;;;;;4.10;1.40;;;;;;;20.41;47.97;96004.91;4968564;28;20199;-26
2023/12/22 05:04:47;;;;;;;1.93;1.10;;;;;;;20.41;47.76;96004.91;4975142;28;20204;-32
2023/12/22 05:07:13;;;;;;;2.40;1.50;;;;;;;20.41;47.82;96006.59;4978009;28;20728;-26
2023/12/22 05:09:43;;;;;;;2.00;1.20;;;;;;;20.40;47.81;96010.81;4973058;28;20737;-26
2023/12/22 05:12:09;;;;;;;2.40;1.10;;;;;;;20.41;48.18;96019.34;4976534;28;20288;-28
2023/12/22 05:14:36;;;;;;;1.90;1.30;;;;;;;20.39;48.07;96009.13;4976054;28;20699;-26
2023/12/22 05:17:03;;;;;;;4.47;1.30;;;;;;;20.40;47.63;96026.13;4978905;28;20254;-26
2023/12/22 05:19:29;;;;;;;1.67;1.13;;;;;;;20.41;47.84;96015.09;4976770;28;20723;-30
2023/12/22 05:21:56;;;;;;;1.70;1.30;;;;;;;20.40;47.92;96005.72;4969864;28;20745;-27
2023/12/22 05:24:23;;;;;;;2.77;1.20;;;;;;;20.39;47.65;95998.91;4978229;28;20236;-26
2023/12/22 05:26:49;;;;;;;1.63;1.27;;;;;;;20.41;48.02;96004.03;4971243;28;20267;-28
2023/12/22 05:29:16;;;;;;;2.43;1.40;;;;;;;20.40;47.98;96013.38;4970280;28;20251;-28
2023/12/22 05:31:43;;;;;;;2.20;1.07;;;;;;;20.38;48.06;96004.00;4979074;28;20231;-32
2023/12/22 05:34:10;;;;;;;3.50;1.40;;;;;;;20.40;48.09;96013.38;4974235;28;20223;-26
2023/12/22 05:36:37;;;;;;;1.63;1.20;;;;;;;20.41;47.96;96027.88;4973686;28;20223;-26
2023/12/22 05:39:03;;;;;;;1.40;1.30;;;;;;;20.41;47.70;96035.53;4970095;28;20214;-27
2023/12/22 05:41:32;;;;;;;2.30;1.30;;;;;;;20.41;47.76;96040.63;4974811;28;20203;-28
2023/12/22 05:43:59;;;;;;;2.20;1.30;;;;;;;20.41;47.84;96037.22;4983635;28;21208;-26
2023/12/22 05:46:26;;;;;;;1.53;1.10;;;;;;;20.41;48.08;96029.56;4968470;28;20279;-26
2023/12/22 05:48:52;;;;;;;1.50;1.23;;;;;;;20.41;47.89;96029.56;4971292;28;20214;-28
2023/12/22 05:51:22;;;;;;;1.67;1.40;;;;;;;20.41;48.04;96019.34;4957477;28;20655;-26
2023/12/22 05:53:49;;;;;;;1.53;1.10;;;;;;;20.40;47.92;96015.94;4970653;28;20231;-28
2023/12/22 05:56:19;;;;;;;3.13;1.40;;;;;;;20.41;47.91;96019.34;4970531;28;20694;-28
2023/12/22 05:58:46;;;;;;;1.40;1.30;;;;;;;20.40;48.09;96003.16;4975683;28;20207;-29
2023/12/22 06:01:18;;;;;;;1.33;1.23;;;;;;;20.41;48.03;96009.13;4976176;28;20203;-27
2023/12/22 06:03:46;;;;;;;1.33;1.23;;;;;;;20.40;47.82;96002.34;4977925;28;20223;-26
2023/12/22 06:06:12;;;;;;;1.40;1.23;;;;;;;20.40;48.04;96015.94;4980253;28;20228;-26
2023/12/22 06:08:39;;;;;;;1.27;1.17;;;;;;;20.40;47.93;96015.09;4974307;28;20218;-26
2023/12/22 06:11:05;;;;;;;1.20;1.10;;;;;;;20.41;48.19;95988.72;4960507;28;20278;-32
2023/12/22 06:13:32;;;;;;;2.43;1.40;;;;;;;20.41;47.88;96004.03;4976202;28;20264;-26
2023/12/22 06:15:59;;;;;;;2.70;1.03;;;;;;;20.43;47.79;96010.03;4967266;28;20227;-26
2023/12/22 06:18:25;;;;;;;1.47;1.20;;;;;;;20.43;47.61;96017.69;4967608;28;20659;-26
2023/12/22 06:20:52;;;;;;;2.20;1.50;;;;;;;20.44;47.71;96015.13;4968220;28;20204;-29
2023/12/22 06:23:18;;;;;;;1.73;1.30;;;;;;;20.44;47.94;96009.16;4974026;28;20219;-27
2023/12/22 06:25:46;;;;;;;1.67;1.07;;;;;;;20.44;47.97;96004.94;4967012;28;20196;-26
2023/12/22 06:28:13;;;;;;;1.90;1.17;;;;;;;20.44;47.96;96006.63;4967800;28;20199;-28
2023/12/22 06:30:39;;;;;;;1.67;1.27;;;;;;;20.44;47.91;96024.47;4964697;28;20216;-26
2023/12/22 06:33:06;;;;;;;2.33;1.40;;;;;;;20.44;47.94;96030.44;4972647;28;20228;-26
2023/12/22 06:35:33;;;;;;;3.77;1.23;;;;;;;20.43;47.84;96023.59;4972289;28;20219;-32
2023/12/22 06:38:03;;;;;;;4.40;1.90;;;;;;;20.43;47.93;96021.06;4968449;28;20689;-26
2023/12/22 06:40:30;;;;;;;3.27;1.50;;;;;;;20.44;47.89;96030.44;4969692;28;20674;-26
2023/12/22 06:42:57;;;;;;;3.30;1.70;;;;;;;20.44;47.77;96032.13;4962846;28;20223;-28
2023/12/22 06:45:23;;;;;;;6.37;1.63;;;;;;;20.45;47.85;96052.56;4971190;28;20582;-27
2023/12/22 06:47:50;;;;;;;4.53;1.90;;;;;;;20.44;47.61;96020.25;4966454;28;20266;-31
2023/12/22 06:50:18;;;;;;;5.27;1.67;;;;;;;20.44;47.71;96039.78;4955986;28;20203;-29
2023/12/22 06:52:44;;;;;;;4.53;1.80;;;;;;;20.44;47.58;96022.78;4976403;28;20274;-27
2023/12/22 06:55:11;;;;;;;6.70;1.87;;;;;;;20.46;47.78;96030.47;4988327;28;20343;-28
2023/12/22 06:57:38;;;;;;;4.63;1.63;;;;;;;20.45;47.69;96024.50;4974843;28;20562;-26
2023/12/22 07:00:07;;;;;;;6.27;1.90;;;;;;;20.45;47.71;96044.91;4972683;28;20206;-28
2023/12/22 07:02:34;;;;;;;4.73;1.67;;;;;;;20.44;47.70;96053.41;4977987;28;20223;-27
2023/12/22 07:05:20;;;;;;;4.43;2.00;;;;;;;20.46;47.99;96069.56;4982295;28;20225;-34
2023/12/22 07:07:47;;;;;;;4.20;1.70;;;;;;;20.48;47.71;96067.03;4975896;28;20207;-26
2023/12/22 07:10:15;;;;;;;6.53;1.90;;;;;;;20.49;47.62;96082.38;4976120;28;20614;-30
2023/12/22 07:12:42;;;;;;;5.10;1.80;;;;;;;20.48;47.91;96077.25;4973910;28;20231;-28
2023/12/22 07:15:10;;;;;;;6.70;2.00;;;;;;;20.48;47.94;96085.75;4982688;28;20227;-27
2023/12/22 07:17:37;;;;;;;6.57;1.90;;;;;;;20.47;48.03;96089.16;4979532;28;20235;-26
2023/12/22 07:20:04;;;;;;;8.30;2.27;;;;;;;20.47;47.93;96078.97;4981997;28;20217;-26
2023/12/22 07:22:31;;;;;;;4.77;1.80;;;;;;;20.46;48.06;96095.09;4973518;28;20306;-27
2023/12/22 07:24:57;;;;;;;7.00;2.07;;;;;;;20.47;47.90;96103.63;4985946;28;20203;-26
2023/12/22 07:27:25;;;;;;;4.03;1.73;;;;;;;20.47;47.83;96116.38;4977404;28;20632;-26
2023/12/22 07:29:54;;;;;;;8.17;2.10;;;;;;;20.47;48.16;96139.34;4972853;28;20231;-26
2023/12/22 07:32:20;;;;;;;5.17;1.93;;;;;;;20.44;44.93;96099.34;4963597;28;20204;-27
2023/12/22 07:34:47;;;;;;;4.57;1.83;;;;;;;20.42;45.25;96107.78;4961033;28;20207;-28
2023/12/22 07:37:13;;;;;;;3.80;1.83;;;;;;;20.42;46.13;96105.25;4974154;28;20224;-27
2023/12/22 07:39:41;;;;;;;6.00;2.03;;;;;;;20.41;46.36;96104.41;4970281;28;20208;-26
2023/12/22 07:42:08;;;;;;;4.90;2.00;;;;;;;20.41;46.56;96104.41;4974433;28;20207;-27
2023/12/22 07:44:34;;;;;;;6.80;2.10;;;;;;;20.41;46.28;96101.84;4966266;28;20290;-26
2023/12/22 07:47:01;;;;;;;4.17;1.83;;;;;;;20.42;46.83;96115.44;4980078;28;20223;-26
2023/12/22 07:49:29;;;;;;;4.90;1.80;;;;;;;20.41;46.86;96104.41;4964556;28;20726;-26
2023/12/22 07:51:57;;;;;;;3.23;1.73;;;;;;;20.41;46.86;96117.16;4963535;28;20679;-27
2023/12/22 07:54:25;;;;;;;4.97;2.10;;;;;;;20.41;47.13;96111.19;4973520;28;20309;-30
2023/12/22 07:56:52;;;;;;;4.13;2.10;;;;;;;20.40;47.11;96112.88;4978625;28;20227;-29
2023/12/22 07:59:18;;;;;;;5.43;2.13;;;;;;;20.41;47.14;96116.31;4961932;28;20397;-30
2023/12/22 08:01:56;;;;;;;2.57;1.77;;;;;;;20.42;47.39;96118.00;4957226;28;20202;-32
2023/12/22 08:04:23;;;;;;;2.60;1.53;;;;;;;20.42;47.31;96123.09;4959289;28;20216;-26
2023/12/22 08:06:50;;;;;;;3.43;2.07;;;;;;;20.42;47.48;96120.56;4959601;28;20362;-26
2023/12/22 08:09:17;;;;;;;3.97;2.00;;;;;;;20.43;47.54;96124.84;4956094;28;20254;-28
2023/12/22 08:11:46;;;;;;;4.43;1.77;;;;;;;20.42;47.45;96123.97;4959431;28;20213;-29
2023/12/22 08:14:13;;;;;;;2.57;1.70;;;;;;;20.42;47.20;96141.84;4961713;28;20718;-27
2023/12/22 08:16:39;;;;;;;3.60;1.80;;;;;;;20.43;47.34;96138.44;4959495;28;20726;-27
2023/12/22 08:19:06;;;;;;;2.90;1.77;;;;;;;20.43;47.27;96141.00;4965698;28;20246;-26
2023/12/22 08:21:33;;;;;;;1.97;1.70;;;;;;;20.44;47.61;96164.81;4962891;28;20206;-29
2023/12/22 08:24:11;;;;;;;4.37;1.97;;;;;;;20.43;47.82;96169.06;4961282;28;20231;-27
2023/12/22 08:26:46;;;;;;;5.43;1.83;;;;;;;20.44;47.65;96180.13;4959847;28;20247;-26
2023/12/22 08:29:12;;;;;;;3.73;1.63;;;;;;;20.43;47.38;96186.91;4963737;28;20201;-26
2023/12/22 08:31:39;;;;;;;3.30;1.50;;;;;;;20.44;47.55;96178.44;4968681;28;20749;-28
2023/12/22 08:34:06;;;;;;;1.93;1.57;;;;;;;20.46;47.78;96171.66;4972048;28;20569;-26
2023/12/22 08:36:33;;;;;;;4.77;1.70;;;;;;;20.46;48.15;96181.84;4961323;28;20219;-26
2023/12/22 08:39:00;;;;;;;4.33;2.10;;;;;;;20.47;48.21;96180.16;4960645;28;20225;-40
2023/12/22 08:41:27;;;;;;;5.27;2.17;;;;;;;20.46;48.37;96184.41;4963990;28;20581;-26
2023/12/22 08:43:53;;;;;;;9.10;2.20;;;;;;;20.48;48.39;96184.41;4961262;28;20246;-31
2023/12/22 08:46:20;;;;;;;3.63;1.63;;;;;;;20.47;48.30;96193.78;4963501;28;20212;-29
2023/12/22 08:48:47;;;;;;;7.43;2.40;;;;;;;20.48;48.11;96181.88;4962972;28;20227;-26
2023/12/22 08:51:13;;;;;;;6.23;2.07;;;;;;;20.48;48.05;96198.03;4963007;28;20212;-27
2023/12/22 08:53:40;;;;;;;6.67;2.67;;;;;;;20.49;48.08;96192.09;4964784;28;20250;-32
2023/12/22 08:56:08;;;;;;;8.50;2.20;;;;;;;20.49;48.18;96192.09;4964128;28;20263;-26
2023/12/22 08:58:35;;;;;;;8.13;2.40;;;;;;;20.50;48.26;96234.66;4966128;28;20225;-26
2023/12/22 09:01:01;;;;;;;7.10;2.50;;;;;;;20.51;48.36;96238.03;4963684;28;20210;-28
2023/12/22 09:03:28;;;;;;;7.17;2.03;;;;;;;20.51;48.17;96194.66;4962372;28;20303;-27
2023/12/22 09:05:55;;;;;;;5.47;1.87;;;;;;;20.51;48.25;96215.94;4961583;28;20330;-29
2023/12/22 09:08:21;;;;;;;9.60;2.60;;;;;;;20.52;48.27;96214.25;4960396;28;20208;-26
2023/12/22 09:10:49;;;;;;;7.00;2.03;;;;;;;20.51;48.46;96215.94;4964203;28;20253;-37
2023/12/22 09:13:16;;;;;;;6.03;2.33;;;;;;;20.51;48.27;96210.84;4959787;28;20231;-26
2023/12/22 09:15:46;;;;;;;7.00;2.20;;;;;;;20.51;48.59;96221.06;4965809;28;20703;-28
2023/12/22 09:18:13;;;;;;;9.60;2.13;;;;;;;20.52;48.55;96219.38;4965014;28;20207;-31
2023/12/22 09:20:40;;;;;;;5.80;2.83;;;;;;;20.52;48.62;96209.16;4963983;28;20305;-26
2023/12/22 09:23:09;;;;;;;5.17;2.00;;;;;;;20.52;48.63;96199.78;4961702;28;20230;-26
2023/12/22 09:25:36;;;;;;;8.17;2.23;;;;;;;20.52;48.40;96207.44;4962291;28;20203;-28
2023/12/22 09:28:03;;;;;;;5.70;2.43;;;;;;;20.53;48.49;96196.41;4963814;28;20279;-28
2023/12/22 09:30:31;;;;;;;11.07;2.87;;;;;;;20.52;48.40;96215.09;4965919;28;20211;-33
2023/12/22 09:32:58;;;;;;;4.90;2.07;;;;;;;20.53;48.50;96198.09;4964509;28;20231;-37
2023/12/22 09:35:26;;;;;;;6.20;2.70;;;;;;;20.53;48.70;96208.31;4968429;28;20219;-26
2023/12/22 09:37:53;;;;;;;7.87;2.40;;;;;;;20.52;48.86;96207.44;4968899;28;20231;-26
2023/12/22 09:40:21;;;;;;;8.03;2.20;;;;;;;20.53;48.87;96205.75;4965300;28;20671;-35
2023/12/22 09:42:50;;;;;;;5.90;2.50;;;;;;;20.50;48.70;96182.75;4965325;28;21394;-27
2023/12/22 09:45:20;;;;;;;8.77;2.50;;;;;;;20.53;48.73;96200.66;4950425;28;20207;-31
2023/12/22 09:47:47;;;;;;;8.87;2.27;;;;;;;20.51;48.84;96189.56;4966042;28;20632;-26
2023/12/22 09:50:15;;;;;;;4.90;2.10;;;;;;;20.51;48.92;96179.34;4967012;28;21072;-27
2023/12/22 09:52:43;;;;;;;6.90;2.63;;;;;;;20.52;48.69;96188.75;4966311;28;20285;-28
2023/12/22 09:55:12;;;;;;;6.10;2.10;;;;;;;20.50;48.84;96183.63;4965381;28;20661;-28
2023/12/22 09:57:41;;;;;;;4.60;2.17;;;;;;;20.51;49.18;96181.91;4966244;28;20306;-29
2023/12/22 10:00:09;;;;;;;3.40;2.00;;;;;;;20.51;48.96;96177.66;4962752;28;20694;-37
2023/12/22 10:02:39;;;;;;;8.00;2.10;;;;;;;20.51;48.83;96181.91;4966074;28;20251;-30
2023/12/22 10:05:05;;;;;;;4.57;2.27;;;;;;;20.52;48.77;96174.25;4966542;28;20732;-32
2023/12/22 10:07:33;;;;;;;5.80;2.40;;;;;;;20.52;48.79;96166.63;4967792;28;20202;-31
2023/12/22 10:10:02;;;;;;;5.77;2.53;;;;;;;20.53;48.98;96173.44;4967494;28;20215;-30
2023/12/22 10:12:30;;;;;;;5.43;2.53;;;;;;;20.51;48.87;96164.91;4967174;28;20328;-32
2023/12/22 10:14:57;;;;;;;6.00;2.77;;;;;;;20.50;48.75;96165.75;4966157;28;20211;-26
2023/12/22 10:17:24;;;;;;;10.00;2.43;;;;;;;20.52;49.19;96156.41;4964946;28;20698;-26
2023/12/22 10:19:50;;;;;;;6.70;2.73;;;;;;;20.51;48.94;96141.94;4966746;28;20208;-28
2023/12/22 10:22:18;;;;;;;9.27;2.90;;;;;;;20.51;49.04;96136.84;4964665;28;20211;-31
2023/12/22 10:24:50;;;;;;;5.10;2.63;;;;;;;20.52;49.04;96147.91;4965552;28;20215;-33
2023/12/22 10:27:22;;;;;;;5.50;2.23;;;;;;;20.52;49.02;96147.91;4964001;28;20203;-26
2023/12/22 10:29:57;;;;;;;4.33;2.67;;;;;;;20.51;49.05;96149.59;4963615;28;20215;-27
2023/12/22 10:32:24;;;;;;;3.00;2.13;;;;;;;20.52;48.95;96147.91;4960266;28;20199;-28
2023/12/22 10:34:51;;;;;;;6.73;2.77;;;;;;;20.52;48.92;96138.53;4966792;28;20206;-26
2023/12/22 10:37:17;;;;;;;6.97;2.63;;;;;;;20.51;49.05;96130.88;4963781;28;20235;-27
2023/12/22 10:39:48;;;;;;;5.30;2.37;;;;;;;20.51;49.15;96126.63;4966601;28;20207;-28
2023/12/22 10:42:14;;;;;;;5.27;2.23;;;;;;;20.53;48.75;96131.75;4963222;28;20211;-33
2023/12/22 10:44:41;;;;;;;6.50;2.43;;;;;;;20.51;49.21;96124.06;4965082;28;20294;-26
2023/12/22 10:47:08;;;;;;;6.10;2.70;;;;;;;20.52;49.18;96133.44;4951609;28;20203;-29
2023/12/22 10:49:35;;;;;;;6.77;2.77;;;;;;;20.52;49.09;96142.81;4971892;28;20207;-30
2023/12/22 10:52:01;;;;;;;5.10;2.53;;;;;;;20.53;49.00;96147.06;4950054;28;20651;-27
2023/12/22 10:54:28;;;;;;;5.93;2.70;;;;;;;20.52;49.32;96160.66;4970918;28;20224;-26
2023/12/22 10:56:59;;;;;;;9.00;3.03;;;;;;;20.52;48.93;96142.81;4952075;28;20220;-28
2023/12/22 10:59:28;;;;;;;8.83;2.57;;;;;;;20.49;49.08;96141.06;4970853;28;20234;-26
2023/12/22 11:01:57;;;;;;;5.87;2.83;;;;;;;20.52;48.93;96150.47;4972487;28;20219;-31
2023/12/22 11:04:28;;;;;;;5.13;2.50;;;;;;;20.53;49.00;96152.16;4970735;28;20224;-28
2023/12/22 11:06:55;;;;;;;4.50;2.57;;;;;;;20.51;49.12;96144.50;4969740;28;20203;-26
2023/12/22 11:09:22;;;;;;;5.07;2.80;;;;;;;20.52;49.26;96141.09;4952884;28;20211;-31
2023/12/22 11:11:49;;;;;;;5.97;2.50;;;;;;;20.51;49.20;96121.53;4971822;28;20200;-26
2023/12/22 11:14:15;;;;;;;4.17;2.30;;;;;;;20.26;49.22;96071.06;4953071;28;20319;-32
2023/12/22 11:16:47;;;;;;;5.83;2.77;;;;;;;20.52;49.38;96119.84;4954505;28;20234;-29
2023/12/22 11:19:14;;;;;;;4.37;2.27;;;;;;;20.53;49.18;96109.66;4968640;28;20214;-29
2023/12/22 11:21:41;;;;;;;5.20;2.33;;;;;;;20.53;49.07;96119.84;4971644;28;20204;-27
2023/12/22 11:24:08;;;;;;;7.67;2.50;;;;;;;20.53;49.16;96108.78;4965956;28;20230;-26
2023/12/22 11:26:35;;;;;;;6.37;2.67;;;;;;;20.53;49.16;96096.88;4968741;28;20207;-28
2023/12/22 11:29:01;;;;;;;6.20;2.67;;;;;;;20.49;49.26;96087.47;4954035;28;20663;-26
2023/12/22 11:31:28;;;;;;;4.63;2.50;;;;;;;20.53;48.99;96090.91;4954427;28;20200;-28
2023/12/22 11:33:55;;;;;;;6.37;2.90;;;;;;;20.52;49.23;96100.25;4949519;28;20265;-27